Time;durP1;ratioP1;P1;durP2;ratioP2;P2;SDS_P1;SDS_P2;PMS_P1;PMS_P2;Temp;Humidity;BMP_temperature;BMP_pressure;BME280_temperature;BME280_humidity;BME280_pressure;Samples;Min_cycle;Max_cycle;Signal;HPM_P1;HPM_P2
2023/06/24 00:03:11;;;;;;;;;;;;;;;20.67;46.88574;102506.8;;;;-68
2023/06/24 00:08:09;;;;;;;;;;;;;;;20.5;47.13086;102492.9;;;;-66
2023/06/24 00:11:21;;;;;;;0.2;0.1;;;;;;;;;;;;;-68
2023/06/24 00:13:10;;;;;;;;;;;;;;;20.44;47.33105;102494.5;;;;-67
2023/06/24 00:18:09;;;;;;;;;;;;;;;20.37;47.18555;102500.8;;;;-67
2023/06/24 00:23:09;;;;;;;;;;;;;;;20.26;47.4248;102504.4;;;;-68
2023/06/24 00:28:09;;;;;;;;;;;;;;;20.2;47.31543;102504.1;;;;-67
2023/06/24 00:33:11;;;;;;;;;;;;;;;20.15;47.38965;102499.3;;;;-67
2023/06/24 00:38:09;;;;;;;;;;;;;;;20.12;47.38672;102492.8;;;;-66
2023/06/24 00:41:24;;;;;;;0.3;0;;;;;;;;;;;;;-67
2023/06/24 00:43:09;;;;;;;;;;;;;;;20.01;47.23828;102496;;;;-66
2023/06/24 00:48:09;;;;;;;;;;;;;;;19.92;47.52637;102496.2;;;;-67
2023/06/24 00:53:09;;;;;;;;;;;;;;;19.83;47.71094;102498.6;;;;-68
2023/06/24 00:58:09;;;;;;;;;;;;;;;19.82;47.5498;102494;;;;-66
2023/06/24 01:03:09;;;;;;;;;;;;;;;19.7;47.84473;102499;;;;-67
2023/06/24 01:08:15;;;;;;;;;;;;;;;19.65;47.71289;102495.2;;;;-67
2023/06/24 01:11:27;;;;;;;0.2;0.1;;;;;;;;;;;;;-66
2023/06/24 01:13:09;;;;;;;;;;;;;;;19.61;47.86816;102501.1;;;;-67
2023/06/24 01:18:12;;;;;;;;;;;;;;;19.52;47.7334;102501.1;;;;-68
2023/06/24 01:23:23;;;;;;;;;;;;;;;19.48;48.02539;102493.5;;;;-67
2023/06/24 01:28:22;;;;;;;;;;;;;;;19.41;48.04102;102492.8;;;;-67
2023/06/24 01:33:13;;;;;;;;;;;;;;;19.36;48.12695;102488.6;;;;-68
2023/06/24 01:38:14;;;;;;;;;;;;;;;19.3;48.31445;102493.6;;;;-67
2023/06/24 01:41:34;;;;;;;0.2;0.1;;;;;;;;;;;;;-68
2023/06/24 01:43:10;;;;;;;;;;;;;;;19.25;48.36621;102492.6;;;;-67
2023/06/24 01:48:11;;;;;;;;;;;;;;;19.19;48.48438;102491.8;;;;-67
2023/06/24 01:53:13;;;;;;;;;;;;;;;19.14;48.84473;102486.2;;;;-67
2023/06/24 01:58:11;;;;;;;;;;;;;;;19.1;48.80469;102479.7;;;;-68
2023/06/24 02:03:10;;;;;;;;;;;;;;;19.05;48.78906;102474.7;;;;-67
2023/06/24 02:08:13;;;;;;;;;;;;;;;18.94;48.85645;102468.3;;;;-67
2023/06/24 02:11:35;;;;;;;0.2;0.1;;;;;;;;;;;;;-68
2023/06/24 02:13:11;;;;;;;;;;;;;;;18.91;49.05762;102457.1;;;;-67
2023/06/24 02:18:11;;;;;;;;;;;;;;;18.9;49.02246;102452;;;;-70
2023/06/24 02:23:10;;;;;;;;;;;;;;;18.82;49.43555;102459.3;;;;-67
2023/06/24 02:28:10;;;;;;;;;;;;;;;18.81;49.22852;102461.8;;;;-67
2023/06/24 02:33:11;;;;;;;;;;;;;;;18.76;49.25684;102460.6;;;;-66
2023/06/24 02:38:11;;;;;;;;;;;;;;;18.74;49.47168;102459;;;;-67
2023/06/24 02:41:36;;;;;;;0.2;0;;;;;;;;;;;;;-67
2023/06/24 02:43:09;;;;;;;;;;;;;;;18.72;49.43555;102450.9;;;;-67
2023/06/24 02:48:10;;;;;;;;;;;;;;;18.65;49.58594;102445.8;;;;-66
2023/06/24 02:53:14;;;;;;;;;;;;;;;18.6;50.08105;102440.4;;;;-67
2023/06/24 02:58:10;;;;;;;;;;;;;;;18.56;49.66602;102435.9;;;;-67
2023/06/24 03:03:13;;;;;;;;;;;;;;;18.53;49.46973;102440.1;;;;-66
2023/06/24 03:08:10;;;;;;;;;;;;;;;18.49;49.2041;102440.2;;;;-68
2023/06/24 03:11:43;;;;;;;0.2;0.1;;;;;;;;;;;;;-68
2023/06/24 03:13:09;;;;;;;;;;;;;;;18.44;49.3916;102430.6;;;;-66
2023/06/24 03:18:09;;;;;;;;;;;;;;;18.39;49.5791;102435.1;;;;-68
2023/06/24 03:23:09;;;;;;;;;;;;;;;18.37;49.42969;102436.1;;;;-67
2023/06/24 03:28:10;;;;;;;;;;;;;;;18.38;49.77246;102436.3;;;;-67
2023/06/24 03:33:19;;;;;;;;;;;;;;;18.46;49.34961;102434.2;;;;-68
2023/06/24 03:38:09;;;;;;;;;;;;;;;18.47;49.21289;102436.1;;;;-67
2023/06/24 03:41:44;;;;;;;0.2;0.1;;;;;;;;;;;;;-66
2023/06/24 03:43:12;;;;;;;;;;;;;;;18.51;49.22949;102442.5;;;;-68
2023/06/24 03:48:12;;;;;;;;;;;;;;;18.58;49.38477;102448;;;;-67
2023/06/24 03:53:10;;;;;;;;;;;;;;;18.64;49.39258;102453;;;;-67
2023/06/24 03:58:09;;;;;;;;;;;;;;;18.68;49.24805;102451.2;;;;-67
2023/06/24 04:03:09;;;;;;;;;;;;;;;18.67;49.4873;102450.9;;;;-68
2023/06/24 04:08:09;;;;;;;;;;;;;;;18.71;49.44434;102456.3;;;;-68
2023/06/24 04:11:44;;;;;;;0.2;0;;;;;;;;;;;;;-68
2023/06/24 04:13:09;;;;;;;;;;;;;;;18.71;49.50195;102457;;;;-68
2023/06/24 04:18:09;;;;;;;;;;;;;;;18.7;49.60352;102458.2;;;;-67
2023/06/24 04:23:10;;;;;;;;;;;;;;;18.72;49.47949;102462;;;;-67
2023/06/24 04:28:09;;;;;;;;;;;;;;;18.71;49.41113;102461.9;;;;-67
2023/06/24 04:33:09;;;;;;;;;;;;;;;18.71;50.0918;102456.9;;;;-67
2023/06/24 04:38:09;;;;;;;;;;;;;;;18.74;50.17676;102458;;;;-68
2023/06/24 04:41:47;;;;;;;0.2;0.1;;;;;;;;;;;;;-67
2023/06/24 04:43:09;;;;;;;;;;;;;;;18.76;49.73535;102470.5;;;;-68
2023/06/24 04:48:09;;;;;;;;;;;;;;;18.8;49.56836;102471.7;;;;-67
2023/06/24 04:53:09;;;;;;;;;;;;;;;18.82;49.74121;102474;;;;-68
2023/06/24 04:58:09;;;;;;;;;;;;;;;18.84;50.2793;102471.2;;;;-67
2023/06/24 05:03:09;;;;;;;;;;;;;;;18.92;50.02539;102476;;;;-67
2023/06/24 05:08:09;;;;;;;;;;;;;;;18.97;49.95215;102476.7;;;;-66
2023/06/24 05:11:50;;;;;;;0.4;0.1;;;;;;;;;;;;;-68
2023/06/24 05:13:10;;;;;;;;;;;;;;;19.02;50.7998;102478.1;;;;-67
2023/06/24 05:18:09;;;;;;;;;;;;;;;19.12;50.58301;102481.9;;;;-67
2023/06/24 05:23:09;;;;;;;;;;;;;;;19.27;52.02441;102479.3;;;;-67
2023/06/24 05:28:09;;;;;;;;;;;;;;;19.73;51.63379;102479.8;;;;-66
2023/06/24 05:33:09;;;;;;;;;;;;;;;20.5;51.3457;102486.6;;;;-65
2023/06/24 05:38:10;;;;;;;;;;;;;;;21.3;49.5166;102489.4;;;;-68
2023/06/24 05:41:53;;;;;;;0.2;0.1;;;;;;;;;;;;;-66
2023/06/24 05:43:10;;;;;;;;;;;;;;;21.99;48.1377;102488.9;;;;-67
2023/06/24 05:48:10;;;;;;;;;;;;;;;22.57;47.52148;102487.3;;;;-67
2023/06/24 05:53:10;;;;;;;;;;;;;;;23.13;46.99512;102491.3;;;;-69
2023/06/24 05:58:09;;;;;;;;;;;;;;;23.58;46.83496;102489.8;;;;-67
2023/06/24 06:03:11;;;;;;;;;;;;;;;24.08;46.31152;102487.4;;;;-68
2023/06/24 06:08:09;;;;;;;;;;;;;;;24.5;46.1123;102488.2;;;;-67
2023/06/24 06:11:56;;;;;;;1.9;0.7;;;;;;;;;;;;;-68
2023/06/24 06:13:09;;;;;;;;;;;;;;;24.92;45.49609;102491.8;;;;-67
2023/06/24 06:18:09;;;;;;;;;;;;;;;25.23;45.10059;102489.5;;;;-68
2023/06/24 06:23:10;;;;;;;;;;;;;;;25.52;45.0957;102491.6;;;;-67
2023/06/24 06:28:12;;;;;;;;;;;;;;;25.71;45.13672;102488.4;;;;-66
2023/06/24 06:33:09;;;;;;;;;;;;;;;26.07;44.57031;102487.9;;;;-68
2023/06/24 06:38:09;;;;;;;;;;;;;;;26.28;44.2207;102488.4;;;;-67
2023/06/24 06:42:02;;;;;;;1.1;0.2;;;;;;;;;;;;;-68
2023/06/24 06:43:09;;;;;;;;;;;;;;;26.58;43.95996;102491.6;;;;-68
2023/06/24 06:48:10;;;;;;;;;;;;;;;26.9;43.24805;102488.7;;;;-66
2023/06/24 06:53:09;;;;;;;;;;;;;;;27.03;43.04004;102491.3;;;;-68
2023/06/24 06:58:09;;;;;;;;;;;;;;;27.1;43.52246;102485.4;;;;-68
2023/06/24 07:03:09;;;;;;;;;;;;;;;27.53;42.82031;102490.1;;;;-66
2023/06/24 07:08:09;;;;;;;;;;;;;;;27.74;42.33984;102497.1;;;;-69
2023/06/24 07:12:05;;;;;;;0.2;0;;;;;;;;;;;;;-66
2023/06/24 07:13:12;;;;;;;;;;;;;;;27.96;42;102489.2;;;;-67
2023/06/24 07:18:09;;;;;;;;;;;;;;;28.2;41.82324;102491.2;;;;-67
2023/06/24 07:23:10;;;;;;;;;;;;;;;28.4;41.59668;102486.7;;;;-67
2023/06/24 07:28:10;;;;;;;;;;;;;;;28.61;41.54688;102485.8;;;;-67
2023/06/24 07:33:09;;;;;;;;;;;;;;;28.86;40.97461;102482.2;;;;-68
2023/06/24 07:38:09;;;;;;;;;;;;;;;29.05;40.93359;102484.3;;;;-68
2023/06/24 07:42:09;;;;;;;0.2;0.1;;;;;;;;;;;;;-67
2023/06/24 07:43:09;;;;;;;;;;;;;;;29.2;40.93457;102482.8;;;;-67
2023/06/24 07:48:09;;;;;;;;;;;;;;;29.36;40.8457;102489.6;;;;-67
2023/06/24 07:53:09;;;;;;;;;;;;;;;29.55;40.76855;102492.3;;;;-69
2023/06/24 07:58:12;;;;;;;;;;;;;;;29.58;41.05176;102489.9;;;;-67
2023/06/24 08:03:09;;;;;;;;;;;;;;;29.66;40.9541;102492.6;;;;-67
2023/06/24 08:08:09;;;;;;;;;;;;;;;29.81;40.89746;102491.5;;;;-68
2023/06/24 08:12:17;;;;;;;0.2;0;;;;;;;;;;;;;-67
2023/06/24 08:13:09;;;;;;;;;;;;;;;29.97;40.72363;102477.9;;;;-68
2023/06/24 08:18:12;;;;;;;;;;;;;;;30.07;40.79199;102480;;;;-66
2023/06/24 08:23:09;;;;;;;;;;;;;;;30.14;40.77441;102483.9;;;;-67
2023/06/24 08:28:09;;;;;;;;;;;;;;;30.39;40.60938;102482.9;;;;-68
2023/06/24 08:33:09;;;;;;;;;;;;;;;30.58;40.24023;102479.8;;;;-67
2023/06/24 08:38:09;;;;;;;;;;;;;;;30.8;40.08398;102481.7;;;;-67
2023/06/24 08:42:22;;;;;;;0.1;0;;;;;;;;;;;;;-67
2023/06/24 08:43:11;;;;;;;;;;;;;;;30.89;39.7627;102480;;;;-68
2023/06/24 08:48:09;;;;;;;;;;;;;;;30.76;40.15039;102480.2;;;;-67
2023/06/24 08:53:11;;;;;;;;;;;;;;;30.81;40.07324;102482;;;;-68
2023/06/24 08:58:09;;;;;;;;;;;;;;;31.21;39.69824;102485.6;;;;-67
2023/06/24 09:03:12;;;;;;;;;;;;;;;31.4;39.09277;102485.8;;;;-66
2023/06/24 09:08:12;;;;;;;;;;;;;;;31.67;38.48047;102488.5;;;;-67
2023/06/24 09:12:24;;;;;;;0.2;0;;;;;;;;;;;;;-66
2023/06/24 09:13:10;;;;;;;;;;;;;;;31.76;38.47656;102488;;;;-67
2023/06/24 09:18:10;;;;;;;;;;;;;;;31.9;38.27734;102485.9;;;;-67
2023/06/24 09:23:09;;;;;;;;;;;;;;;32;37.93262;102490.4;;;;-67
2023/06/24 09:28:09;;;;;;;;;;;;;;;32.32;37.48828;102491.8;;;;-67
2023/06/24 09:33:09;;;;;;;;;;;;;;;32.49;37.06738;102488.6;;;;-68
2023/06/24 09:38:09;;;;;;;;;;;;;;;32.53;37.17578;102481.3;;;;-68
2023/06/24 09:42:30;;;;;;;0.1;0;;;;;;;;;;;;;-66
2023/06/24 09:43:09;;;;;;;;;;;;;;;32.72;37.03809;102480.4;;;;-69
2023/06/24 09:48:09;;;;;;;;;;;;;;;32.9;36.61621;102479.8;;;;-66
2023/06/24 09:53:10;;;;;;;;;;;;;;;33.04;36.58105;102474.4;;;;-66
2023/06/24 09:58:09;;;;;;;;;;;;;;;33.29;36.08105;102474.5;;;;-67
2023/06/24 10:03:10;;;;;;;;;;;;;;;33.37;35.79297;102469.2;;;;-69
2023/06/24 10:08:10;;;;;;;;;;;;;;;33.45;35.37402;102471.4;;;;-67
2023/06/24 10:12:37;;;;;;;0.2;0;;;;;;;;;;;;;-65
2023/06/24 10:13:10;;;;;;;;;;;;;;;33.69;34.99121;102467;;;;-66
2023/06/24 10:18:19;;;;;;;;;;;;;;;33.79;34.72656;102469.6;;;;-67
2023/06/24 10:23:13;;;;;;;;;;;;;;;33.94;34.56152;102460.9;;;;-67
2023/06/24 10:28:09;;;;;;;;;;;;;;;34.1;34.41895;102455.9;;;;-67
2023/06/24 10:33:13;;;;;;;;;;;;;;;34.21;33.89551;102448.6;;;;-69
2023/06/24 10:38:13;;;;;;;;;;;;;;;34.28;34.04199;102451.1;;;;-69
2023/06/24 10:42:53;;;;;;;0.1;0;;;;;;;;;;;;;-68
2023/06/24 10:43:19;;;;;;;;;;;;;;;34.46;33.81934;102451.5;;;;-70
2023/06/24 10:48:09;;;;;;;;;;;;;;;34.6;33.2959;102443.7;;;;-71
2023/06/24 10:53:11;;;;;;;;;;;;;;;34.72;33.67285;102446.7;;;;-69
2023/06/24 10:58:15;;;;;;;;;;;;;;;34.83;34.76953;102449.2;;;;-68
2023/06/24 11:03:15;;;;;;;;;;;;;;;34.99;34.87793;102453.2;;;;-70
2023/06/24 11:08:09;;;;;;;;;;;;;;;35.18;34.9502;102450.1;;;;-69
2023/06/24 11:12:51;;;;;;;0.2;0;;;;;;;;;;;;;-69
2023/06/24 11:13:12;;;;;;;;;;;;;;;35.26;35.00488;102445;;;;-70
2023/06/24 11:18:11;;;;;;;;;;;;;;;35.46;34.36719;102440.9;;;;-69
2023/06/24 11:23:10;;;;;;;;;;;;;;;35.58;34.80273;102445;;;;-70
2023/06/24 11:28:09;;;;;;;;;;;;;;;35.69;35.52344;102444.1;;;;-68
2023/06/24 11:33:09;;;;;;;;;;;;;;;35.83;35.62891;102444.3;;;;-68
2023/06/24 11:38:09;;;;;;;;;;;;;;;35.86;35.41797;102445.9;;;;-68
2023/06/24 11:42:55;;;;;;;1;0.4;;;;;;;;;;;;;-68
2023/06/24 11:43:11;;;;;;;;;;;;;;;35.83;36.1748;102440.4;;;;-70
2023/06/24 11:48:09;;;;;;;;;;;;;;;35.79;36.34961;102444.4;;;;-68
2023/06/24 11:53:09;;;;;;;;;;;;;;;35.74;36.28711;102438.8;;;;-68
2023/06/24 11:58:12;;;;;;;;;;;;;;;35.82;36.48242;102434.8;;;;-70
2023/06/24 12:03:10;;;;;;;;;;;;;;;35.97;36.01953;102433.1;;;;-69
2023/06/24 12:08:10;;;;;;;;;;;;;;;35.95;35.66211;102428.1;;;;-71
2023/06/24 12:13:03;;;;;;;0.1;0;;;;;;;;;;;;;-70
2023/06/24 12:13:13;;;;;;;;;;;;;;;35.98;33.87109;102426.3;;;;-69
2023/06/24 12:17:57;;;;;;;;;;;;;;;36.02;35.50098;102423.9;;;;-69
2023/06/24 12:22:57;;;;;;;;;;;;;;;36.05;35.27832;102426.3;;;;-70
2023/06/24 12:27:59;;;;;;;;;;;;;;;36.04;35.24219;102425.7;;;;-71
2023/06/24 12:32:57;;;;;;;;;;;;;;;36.22;35.18457;102424.5;;;;-70
2023/06/24 12:38:04;;;;;;;;;;;;;;;36.34;34.69434;102419;;;;-72
2023/06/24 12:42:57;;;;;;;;;;;;;;;36.42;34.72363;102418.8;;;;-71
2023/06/24 12:43:09;;;;;;;0.3;0.1;;;;;;;;;;;;;-71
2023/06/24 12:47:57;;;;;;;;;;;;;;;36.51;34.75586;102418.2;;;;-70
2023/06/24 12:52:57;;;;;;;;;;;;;;;36.49;34.4209;102418.2;;;;-72
2023/06/24 12:57:57;;;;;;;;;;;;;;;36.54;35.06543;102414.1;;;;-68
2023/06/24 13:02:57;;;;;;;;;;;;;;;36.61;35.08301;102412.2;;;;-68
2023/06/24 13:07:57;;;;;;;;;;;;;;;36.69;34.57813;102412.7;;;;-70
2023/06/24 13:12:57;;;;;;;;;;;;;;;36.92;34.41602;102407.1;;;;-66
2023/06/24 13:13:20;;;;;;;0.2;0;;;;;;;;;;;;;-69
2023/06/24 13:17:57;;;;;;;;;;;;;;;37;33.50684;102409.2;;;;-68
2023/06/24 13:23:02;;;;;;;;;;;;;;;36.95;34.0498;102405;;;;-69
2023/06/24 13:27:58;;;;;;;;;;;;;;;37.09;34.13184;102412;;;;-68
2023/06/24 13:32:57;;;;;;;;;;;;;;;37.04;33.85449;102403.8;;;;-67
2023/06/24 13:37:58;;;;;;;;;;;;;;;37.02;34.4707;102406.7;;;;-68
2023/06/24 13:42:57;;;;;;;;;;;;;;;36.97;33.83691;102403.9;;;;-67
2023/06/24 13:43:24;;;;;;;0.1;0;;;;;;;;;;;;;-66
2023/06/24 13:48:02;;;;;;;;;;;;;;;37.04;33.91406;102400.9;;;;-69
2023/06/24 13:52:57;;;;;;;;;;;;;;;37.18;33.20996;102397.8;;;;-67
2023/06/24 13:57:57;;;;;;;;;;;;;;;37.17;32.44629;102392.1;;;;-68
2023/06/24 14:03:00;;;;;;;;;;;;;;;37.13;32.94434;102395.7;;;;-68
2023/06/24 14:08:00;;;;;;;;;;;;;;;37.14;32.93262;102390.8;;;;-70
2023/06/24 14:12:57;;;;;;;;;;;;;;;37.16;32.68359;102391.6;;;;-67
2023/06/24 14:13:32;;;;;;;0.1;0;;;;;;;;;;;;;-67
2023/06/24 14:17:57;;;;;;;;;;;;;;;37.11;33.00195;102388.2;;;;-67
2023/06/24 14:22:57;;;;;;;;;;;;;;;37.05;32.93848;102384.7;;;;-69
2023/06/24 14:27:57;;;;;;;;;;;;;;;37.13;32.69336;102381.9;;;;-67
2023/06/24 14:32:57;;;;;;;;;;;;;;;37.21;31.90137;102378.1;;;;-68
2023/06/24 14:37:57;;;;;;;;;;;;;;;37.06;32.09277;102375.3;;;;-67
2023/06/24 14:42:57;;;;;;;;;;;;;;;36.97;32.06348;102378.6;;;;-68
2023/06/24 14:43:38;;;;;;;0.1;0;;;;;;;;;;;;;-67
2023/06/24 14:47:57;;;;;;;;;;;;;;;36.79;32.21777;102376.1;;;;-69
2023/06/24 14:53:00;;;;;;;;;;;;;;;36.64;32.5166;102374.5;;;;-67
2023/06/24 14:57:57;;;;;;;;;;;;;;;36.52;32.68652;102369.9;;;;-68
2023/06/24 15:02:57;;;;;;;;;;;;;;;36.47;32.20703;102365.8;;;;-68
2023/06/24 15:07:57;;;;;;;;;;;;;;;36.43;32.25195;102367.4;;;;-68
2023/06/24 15:13:00;;;;;;;;;;;;;;;36.35;32.31836;102363.4;;;;-69
2023/06/24 15:13:47;;;;;;;0.2;0;;;;;;;;;;;;;-68
2023/06/24 15:18:00;;;;;;;;;;;;;;;36.22;32.75977;102359.7;;;;-67
2023/06/24 15:22:57;;;;;;;;;;;;;;;36.1;32.52637;102359.1;;;;-68
2023/06/24 15:27:57;;;;;;;;;;;;;;;36.04;32.71191;102363.4;;;;-67
2023/06/24 15:32:57;;;;;;;;;;;;;;;35.86;32.46191;102359.4;;;;-67
2023/06/24 15:37:57;;;;;;;;;;;;;;;35.75;32.57227;102361.2;;;;-67
2023/06/24 15:42:57;;;;;;;;;;;;;;;35.7;32.8291;102363.2;;;;-67
2023/06/24 15:43:52;;;;;;;0.2;0;;;;;;;;;;;;;-67
2023/06/24 15:47:57;;;;;;;;;;;;;;;35.55;32.97363;102358.8;;;;-68
2023/06/24 15:52:57;;;;;;;;;;;;;;;35.42;33.2373;102356.9;;;;-68
2023/06/24 15:57:57;;;;;;;;;;;;;;;35.32;33.52637;102355.3;;;;-69
2023/06/24 16:03:01;;;;;;;;;;;;;;;35.13;33.38184;102348.6;;;;-68
2023/06/24 16:07:57;;;;;;;;;;;;;;;35.02;33.84863;102344.3;;;;-67
2023/06/24 16:12:57;;;;;;;;;;;;;;;34.86;33.84863;102336.6;;;;-71
2023/06/24 16:14:04;;;;;;;0.1;0;;;;;;;;;;;;;-68
2023/06/24 16:17:57;;;;;;;;;;;;;;;34.74;33.91016;102333;;;;-69
2023/06/24 16:22:57;;;;;;;;;;;;;;;34.64;34.28223;102336.9;;;;-69
2023/06/24 16:28:02;;;;;;;;;;;;;;;34.47;34.31641;102327.9;;;;-67
2023/06/24 16:32:57;;;;;;;;;;;;;;;34.36;34.41504;102320.2;;;;-68
2023/06/24 16:37:57;;;;;;;;;;;;;;;34.28;34.53906;102316.5;;;;-70
2023/06/24 16:42:58;;;;;;;;;;;;;;;34.15;34.55371;102305.8;;;;-69
2023/06/24 16:44:06;;;;;;;0.1;0;;;;;;;;;;;;;-67
2023/06/24 16:47:57;;;;;;;;;;;;;;;33.99;34.80078;102304.4;;;;-68
2023/06/24 16:52:57;;;;;;;;;;;;;;;33.82;35.0127;102302.7;;;;-66
2023/06/24 16:57:57;;;;;;;;;;;;;;;33.68;35.22656;102301.5;;;;-68
2023/06/24 17:02:57;;;;;;;;;;;;;;;33.55;35.03906;102301.3;;;;-67
2023/06/24 17:07:58;;;;;;;;;;;;;;;33.39;35.15723;102302;;;;-67
2023/06/24 17:12:57;;;;;;;;;;;;;;;33.21;35.41504;102301.7;;;;-68
2023/06/24 17:14:12;;;;;;;0.1;0;;;;;;;;;;;;;-68
2023/06/24 17:17:57;;;;;;;;;;;;;;;33.08;35.51074;102299.9;;;;-67
2023/06/24 17:22:57;;;;;;;;;;;;;;;32.93;35.67578;102302.1;;;;-67
2023/06/24 17:27:57;;;;;;;;;;;;;;;32.79;35.79395;102298.3;;;;-69
2023/06/24 17:32:57;;;;;;;;;;;;;;;32.66;35.9248;102298.6;;;;-69
2023/06/24 17:37:57;;;;;;;;;;;;;;;32.52;36.02051;102293.1;;;;-69
2023/06/24 17:42:58;;;;;;;;;;;;;;;32.38;36.10352;102294.3;;;;-68
2023/06/24 17:44:19;;;;;;;0.2;0.1;;;;;;;;;;;;;-67
2023/06/24 17:47:57;;;;;;;;;;;;;;;32.24;36.16309;102292;;;;-68
2023/06/24 17:52:57;;;;;;;;;;;;;;;32.09;36.375;102292.5;;;;-68
2023/06/24 17:57:57;;;;;;;;;;;;;;;31.93;36.43262;102288;;;;-68
2023/06/24 18:02:57;;;;;;;;;;;;;;;31.77;36.6543;102287.7;;;;-67
2023/06/24 18:07:57;;;;;;;;;;;;;;;31.62;36.72559;102282.6;;;;-68
2023/06/24 18:12:57;;;;;;;;;;;;;;;31.46;36.88867;102280.3;;;;-67
2023/06/24 18:14:25;;;;;;;0.5;0.2;;;;;;;;;;;;;-68
2023/06/24 18:17:57;;;;;;;;;;;;;;;31.34;37.02051;102281.9;;;;-68
2023/06/24 18:22:58;;;;;;;;;;;;;;;31.21;37.0918;102281;;;;-67
2023/06/24 18:28:00;;;;;;;;;;;;;;;31.09;37.15234;102281.1;;;;-72
2023/06/24 18:32:57;;;;;;;;;;;;;;;30.97;37.02539;102273.3;;;;-71
2023/06/24 18:38:03;;;;;;;;;;;;;;;30.84;37.06152;102277;;;;-73
2023/06/24 18:42:57;;;;;;;;;;;;;;;30.68;37.24805;102275.7;;;;-71
2023/06/24 18:44:31;;;;;;;0.1;0;;;;;;;;;;;;;-72
2023/06/24 18:48:00;;;;;;;;;;;;;;;30.49;37.33789;102272.9;;;;-74
2023/06/24 18:52:57;;;;;;;;;;;;;;;30.3;37.43945;102271.3;;;;-72
2023/06/24 18:57:57;;;;;;;;;;;;;;;30.12;37.53027;102273.1;;;;-72
2023/06/24 19:03:00;;;;;;;;;;;;;;;29.38;40.05176;102266.6;;;;-69
2023/06/24 19:07:57;;;;;;;;;;;;;;;27.29;45.5625;102261.2;;;;-69
2023/06/24 19:12:57;;;;;;;;;;;;;;;28.01;43.57617;102262.2;;;;-65
2023/06/24 19:14:36;;;;;;;0.2;0;;;;;;;;;;;;;-66
2023/06/24 19:17:57;;;;;;;;;;;;;;;28.62;39.70508;102253.4;;;;-64
2023/06/24 19:22:57;;;;;;;;;;;;;;;28.63;38.72559;102249.5;;;;-65
2023/06/24 19:27:59;;;;;;;;;;;;;;;28.47;38.7002;102247;;;;-65
2023/06/24 19:32:57;;;;;;;;;;;;;;;28.29;38.83691;102246.1;;;;-65
2023/06/24 19:37:57;;;;;;;;;;;;;;;28.1;39.05371;102245;;;;-66
2023/06/24 19:42:58;;;;;;;;;;;;;;;27.91;39.03711;102247.6;;;;-66
2023/06/24 19:44:42;;;;;;;0.2;0;;;;;;;;;;;;;-65
2023/06/24 19:47:59;;;;;;;;;;;;;;;27.7;39.15918;102247.8;;;;-65
2023/06/24 19:52:57;;;;;;;;;;;;;;;27.5;39.11816;102248.5;;;;-65
2023/06/24 19:57:59;;;;;;;;;;;;;;;27.31;39.38086;102248.2;;;;-65
2023/06/24 20:03:00;;;;;;;;;;;;;;;27.11;39.61816;102254.8;;;;-66
2023/06/24 20:07:59;;;;;;;;;;;;;;;26.93;40.00977;102263.8;;;;-65
2023/06/24 20:12:57;;;;;;;;;;;;;;;26.76;39.85645;102260;;;;-66
2023/06/24 20:14:46;;;;;;;0.7;0.1;;;;;;;;;;;;;-65
2023/06/24 20:18:01;;;;;;;;;;;;;;;26.58;40.08398;102263.2;;;;-64
2023/06/24 20:22:57;;;;;;;;;;;;;;;26.41;40.16211;102275.2;;;;-66
2023/06/24 20:27:59;;;;;;;;;;;;;;;26.24;40.43652;102272;;;;-66
2023/06/24 20:32:57;;;;;;;;;;;;;;;26.06;40.53613;102270.3;;;;-65
2023/06/24 20:37:57;;;;;;;;;;;;;;;25.9;41.03223;102270.6;;;;-65
2023/06/24 20:42:57;;;;;;;;;;;;;;;25.74;41.2959;102268.4;;;;-66
2023/06/24 20:44:51;;;;;;;0.2;0;;;;;;;;;;;;;-66
2023/06/24 20:47:57;;;;;;;;;;;;;;;25.59;41.24707;102269.2;;;;-66
2023/06/24 20:52:57;;;;;;;;;;;;;;;25.43;41.9502;102262.6;;;;-65
2023/06/24 20:57:57;;;;;;;;;;;;;;;25.25;42.08398;102259.9;;;;-65
2023/06/24 21:02:57;;;;;;;;;;;;;;;25.1;42.39355;102255.2;;;;-65
2023/06/24 21:07:58;;;;;;;;;;;;;;;24.93;42.5625;102256.4;;;;-65
2023/06/24 21:12:57;;;;;;;;;;;;;;;24.79;42.90723;102254;;;;-67
2023/06/24 21:14:56;;;;;;;0.2;0;;;;;;;;;;;;;-64
2023/06/24 21:17:57;;;;;;;;;;;;;;;24.64;43.24023;102251.8;;;;-68
2023/06/24 21:22:57;;;;;;;;;;;;;;;24.5;43.6875;102248.1;;;;-65
2023/06/24 21:27:57;;;;;;;;;;;;;;;24.36;44.10156;102250.4;;;;-66
2023/06/24 21:32:57;;;;;;;;;;;;;;;24.22;43.90332;102248.4;;;;-65
2023/06/24 21:38:02;;;;;;;;;;;;;;;24.11;44.60742;102245;;;;-67
2023/06/24 21:42:58;;;;;;;;;;;;;;;23.96;44.7998;102240;;;;-68
2023/06/24 21:45:00;;;;;;;0.2;0;;;;;;;;;;;;;-68
2023/06/24 21:47:58;;;;;;;;;;;;;;;23.82;45.02832;102231.1;;;;-68
2023/06/24 21:52:57;;;;;;;;;;;;;;;23.73;45.11133;102230.3;;;;-67
2023/06/24 21:57:57;;;;;;;;;;;;;;;23.61;45.11133;102221.6;;;;-67
2023/06/24 22:02:58;;;;;;;;;;;;;;;23.51;45.28516;102228.2;;;;-68
2023/06/24 22:07:57;;;;;;;;;;;;;;;23.43;45.71484;102220.2;;;;-67
2023/06/24 22:12:57;;;;;;;;;;;;;;;23.33;45.83203;102211.8;;;;-68
2023/06/24 22:15:03;;;;;;;0.2;0;;;;;;;;;;;;;-67
2023/06/24 22:17:57;;;;;;;;;;;;;;;23.27;45.84766;102213;;;;-67
2023/06/24 22:22:57;;;;;;;;;;;;;;;23.18;45.88477;102210.5;;;;-67
2023/06/24 22:27:59;;;;;;;;;;;;;;;23.1;46.15137;102209.7;;;;-68
2023/06/24 22:32:57;;;;;;;;;;;;;;;23.05;46.31934;102210.8;;;;-67
2023/06/24 22:37:57;;;;;;;;;;;;;;;22.97;46.18555;102211;;;;-68
2023/06/24 22:42:57;;;;;;;;;;;;;;;22.94;46.83691;102211.9;;;;-67
2023/06/24 22:45:10;;;;;;;0.2;0;;;;;;;;;;;;;-68
2023/06/24 22:47:58;;;;;;;;;;;;;;;22.9;46.59082;102209.3;;;;-67
2023/06/24 22:52:57;;;;;;;;;;;;;;;22.81;46.86914;102213.6;;;;-68
2023/06/24 22:57:57;;;;;;;;;;;;;;;22.76;47.09473;102211.6;;;;-67
2023/06/24 23:02:59;;;;;;;;;;;;;;;22.74;47.1377;102207.3;;;;-66
2023/06/24 23:07:57;;;;;;;;;;;;;;;22.69;47.00586;102202;;;;-67
2023/06/24 23:12:57;;;;;;;;;;;;;;;22.62;47.31934;102205.8;;;;-67
2023/06/24 23:15:14;;;;;;;0.2;0;;;;;;;;;;;;;-67
2023/06/24 23:17:57;;;;;;;;;;;;;;;22.58;47.56934;102206;;;;-68
2023/06/24 23:22:59;;;;;;;;;;;;;;;22.55;47.74902;102202.4;;;;-67
2023/06/24 23:27:59;;;;;;;;;;;;;;;22.51;47.40137;102200.2;;;;-67
2023/06/24 23:32:59;;;;;;;;;;;;;;;22.41;47.36621;102192;;;;-68
2023/06/24 23:37:57;;;;;;;;;;;;;;;22.4;47.43457;102189.5;;;;-67
2023/06/24 23:42:57;;;;;;;;;;;;;;;22.33;47.2793;102179.8;;;;-68
2023/06/24 23:45:16;;;;;;;0.2;0.1;;;;;;;;;;;;;-68
2023/06/24 23:47:57;;;;;;;;;;;;;;;22.29;47.43555;102179.7;;;;-67
2023/06/24 23:52:57;;;;;;;;;;;;;;;22.21;47.49512;102175.2;;;;-66
2023/06/24 23:57:57;;;;;;;;;;;;;;;22.17;47.43359;102172.5;;;;-70
